Time;durP1;ratioP1;P1;durP2;ratioP2;P2;SDS_P1;SDS_P2;PMS_P1;PMS_P2;Temp;Humidity;BMP_temperature;BMP_pressure;BME280_temperature;BME280_humidity;BME280_pressure;Samples;Min_cycle;Max_cycle;Signal;HPM_P1;HPM_P2
2023/01/17 00:02:01;;;;;;;18.00;6.10;;;;;;;-0.97;100.00;90082.66;4991304;28;20041;-77
2023/01/17 00:09:59;;;;;;;9.40;5.97;;;;;;;-1.09;100.00;90084.88;4985448;28;20503;-77
2023/01/17 00:12:28;;;;;;;9.07;5.07;;;;;;;-1.18;100.00;90086.50;4973932;28;20455;-78
2023/01/17 00:14:55;;;;;;;7.78;4.90;;;;;;;-1.29;100.00;90086.59;4990287;28;20240;-77
2023/01/17 00:17:22;;;;;;;11.68;6.45;;;;;;;-1.37;100.00;90079.50;4991124;28;20077;-78
2023/01/17 01:34:34;;;;;;;7.55;2.40;;;;;;;-1.43;100.00;90120.91;4978972;28;20047;-78
2023/01/17 01:37:00;;;;;;;5.90;3.42;;;;;;;-1.45;100.00;90113.47;4980500;28;20042;-78
2023/01/17 01:39:26;;;;;;;8.85;4.45;;;;;;;-1.45;100.00;90113.47;4991153;28;20551;-77
2023/01/17 01:41:52;;;;;;;6.88;3.38;;;;;;;-1.46;100.00;90111.94;4994142;28;20042;-78
2023/01/17 01:44:50;;;;;;;5.20;2.70;;;;;;;-1.45;100.00;90105.00;4992766;28;20080;-77
2023/01/17 01:47:21;;;;;;;4.88;2.10;;;;;;;-1.43;100.00;90096.00;4991997;28;20044;-77
2023/01/17 01:49:48;;;;;;;4.10;2.08;;;;;;;-1.28;100.00;90095.09;4989515;28;20121;-78
2023/01/17 01:52:15;;;;;;;3.60;1.92;;;;;;;-0.93;100.00;90093.16;4974742;28;20134;-78
2023/01/17 01:54:46;;;;;;;4.57;2.40;;;;;;;-0.77;100.00;90091.94;4973459;28;20034;-77
2023/01/17 01:57:17;;;;;;;4.75;2.75;;;;;;;-0.99;100.00;90087.34;4979911;28;20026;-77
2023/01/17 01:59:57;;;;;;;5.75;2.75;;;;;;;-1.07;100.00;90091.25;4993793;28;20559;-77
2023/01/17 02:02:22;;;;;;;5.47;3.05;;;;;;;-0.83;100.00;90090.47;4991981;28;20551;-77
2023/01/17 02:04:49;;;;;;;6.40;2.80;;;;;;;-0.91;100.00;90080.81;4992570;28;20026;-77
2023/01/17 02:07:24;;;;;;;6.05;3.10;;;;;;;-1.05;100.00;90076.34;4975548;28;20034;-77
2023/01/17 02:09:51;;;;;;;5.65;3.47;;;;;;;-1.09;100.00;90079.72;4992790;28;20042;-77
2023/01/17 02:12:18;;;;;;;7.53;3.90;;;;;;;-1.14;100.00;90077.97;4993180;28;20547;-77
2023/01/17 02:14:44;;;;;;;7.47;3.60;;;;;;;-1.10;100.00;90078.97;4976128;28;20026;-77
2023/01/17 02:17:26;;;;;;;6.05;3.20;;;;;;;-1.06;100.00;90079.16;4974700;28;20493;-77
2023/01/17 02:20:03;;;;;;;7.13;4.00;;;;;;;-1.17;100.00;90068.28;4993391;28;20034;-77
2023/01/17 02:23:03;;;;;;;8.68;4.35;;;;;;;-1.26;100.00;90065.53;4992602;28;20045;-77
2023/01/17 02:25:53;;;;;;;6.78;3.70;;;;;;;-1.32;100.00;90061.50;4991860;28;20455;-77
2023/01/17 02:28:40;;;;;;;7.75;3.72;;;;;;;-1.39;100.00;90071.31;4991429;28;20117;-77
2023/01/17 02:31:15;;;;;;;6.47;3.50;;;;;;;-1.42;100.00;90059.00;4991313;28;20121;-77
2023/01/17 02:33:52;;;;;;;5.43;3.20;;;;;;;-1.37;100.00;90055.66;4973711;28;20041;-77
2023/01/17 02:36:58;;;;;;;6.47;3.17;;;;;;;-1.03;100.00;90058.09;4973957;28;20735;-77
2023/01/17 02:39:30;;;;;;;5.43;2.78;;;;;;;-0.84;100.00;90065.81;4989498;28;20456;-78
2023/01/17 02:42:03;;;;;;;7.93;4.45;;;;;;;-1.01;100.00;90060.38;4992677;28;20038;-77
2023/01/17 02:44:29;;;;;;;11.57;5.43;;;;;;;-1.15;100.00;90055.94;4992681;28;20123;-77
2023/01/17 02:46:56;;;;;;;9.00;5.53;;;;;;;-1.24;100.00;90052.41;4975343;28;20256;-78
2023/01/17 02:49:30;;;;;;;10.02;5.45;;;;;;;-1.29;100.00;90053.22;4983825;28;20084;-77
2023/01/17 02:52:23;;;;;;;9.05;5.55;;;;;;;-1.30;100.00;90053.53;4991414;28;20050;-78
2023/01/17 02:55:04;;;;;;;9.05;5.47;;;;;;;-1.31;100.00;90057.13;4992856;28;20034;-78
2023/01/17 02:57:32;;;;;;;8.93;5.60;;;;;;;-1.29;100.00;90049.91;4992908;28;20133;-77
2023/01/17 03:00:05;;;;;;;10.50;5.50;;;;;;;-1.29;100.00;90049.91;4990352;28;20076;-77
2023/01/17 03:02:54;;;;;;;9.77;4.88;;;;;;;-1.33;100.00;90041.22;4991958;28;20145;-78
2023/01/17 03:05:32;;;;;;;9.23;5.18;;;;;;;-1.28;100.00;90048.88;4991946;28;20062;-78
2023/01/17 03:08:00;;;;;;;11.93;5.57;;;;;;;-1.24;100.00;90044.72;4992401;28;20062;-78
2023/01/17 03:10:27;;;;;;;9.88;5.13;;;;;;;-1.25;100.00;90032.94;4991104;28;20104;-78
2023/01/17 03:12:57;;;;;;;7.45;4.43;;;;;;;-1.29;100.00;90021.66;4988302;28;20159;-78
2023/01/17 03:15:23;;;;;;;7.95;4.25;;;;;;;-1.27;100.00;90017.03;4973452;28;20030;-77
2023/01/17 03:17:52;;;;;;;7.78;3.63;;;;;;;-1.31;100.00;90000.66;4973027;28;20518;-78
2023/01/17 03:20:18;;;;;;;6.32;3.20;;;;;;;-1.30;100.00;89999.63;4978960;28;20153;-78
2023/01/17 03:22:43;;;;;;;5.20;3.03;;;;;;;-1.34;100.00;89989.13;4974951;28;20077;-77
2023/01/17 03:25:09;;;;;;;5.15;2.50;;;;;;;-1.36;100.00;89985.31;4990935;28;20134;-77
2023/01/17 03:27:35;;;;;;;3.80;1.95;;;;;;;-1.40;100.00;89976.63;4991700;28;20034;-77
2023/01/17 03:30:00;;;;;;;7.28;4.03;;;;;;;-1.38;100.00;89979.69;4990520;28;20500;-78
2023/01/17 03:32:26;;;;;;;8.38;3.67;;;;;;;-1.45;100.00;89979.25;4992048;28;20026;-78
2023/01/17 03:34:52;;;;;;;7.85;3.80;;;;;;;-1.53;100.00;89981.41;4992297;28;20034;-78
2023/01/17 03:37:18;;;;;;;6.50;3.67;;;;;;;-1.44;100.00;89978.22;4990677;28;20400;-77
2023/01/17 03:39:43;;;;;;;7.43;3.75;;;;;;;-1.61;100.00;89971.72;4992323;28;20046;-77
2023/01/17 03:42:09;;;;;;;6.78;4.00;;;;;;;-1.73;100.00;89984.94;4990059;28;20041;-77
2023/01/17 03:44:34;;;;;;;6.88;3.58;;;;;;;-1.80;100.00;89970.91;4974482;28;20030;-77
2023/01/17 03:47:00;;;;;;;6.70;3.72;;;;;;;-1.88;100.00;89972.28;4990397;28;20073;-78
2023/01/17 03:49:25;;;;;;;6.05;3.33;;;;;;;-1.90;100.00;89975.09;4989447;28;20061;-77
2023/01/17 03:51:51;;;;;;;5.32;2.67;;;;;;;-1.97;100.00;89958.53;4991592;28;20141;-77
2023/01/17 03:54:17;;;;;;;4.13;2.20;;;;;;;-1.99;100.00;89952.91;4974229;28;20042;-77
2023/01/17 03:56:42;;;;;;;3.08;1.70;;;;;;;-2.00;100.00;89929.06;4991655;28;20042;-78
2023/01/17 03:59:08;;;;;;;2.47;1.60;;;;;;;-1.96;100.00;89924.13;4987528;28;20432;-78
2023/01/17 04:01:33;;;;;;;2.42;1.60;;;;;;;-1.93;100.00;89916.69;4990021;28;20409;-77
2023/01/17 04:03:59;;;;;;;3.63;1.70;;;;;;;-1.91;100.00;89924.88;4990329;28;20060;-78
2023/01/17 04:06:24;;;;;;;4.32;1.90;;;;;;;-1.92;100.00;89940.50;4989959;28;20066;-78
2023/01/17 04:08:50;;;;;;;5.38;2.60;;;;;;;-1.98;100.00;89947.50;4989957;28;20076;-77
2023/01/17 04:11:16;;;;;;;7.82;3.70;;;;;;;-1.97;100.00;89943.13;4991469;28;20034;-77
2023/01/17 04:13:41;;;;;;;6.22;2.90;;;;;;;-2.03;100.00;89944.22;4989792;28;20243;-77
2023/01/17 04:16:12;;;;;;;5.18;2.63;;;;;;;-2.01;100.00;89947.28;4990862;28;20037;-77
2023/01/17 04:18:37;;;;;;;4.20;2.50;;;;;;;-2.05;100.00;89929.09;4989534;28;20133;-77
2023/01/17 04:21:03;;;;;;;4.43;2.40;;;;;;;-2.08;100.00;89931.47;4970622;28;20496;-78
2023/01/17 04:23:29;;;;;;;3.80;2.20;;;;;;;-1.81;100.00;89928.34;4989914;28;20053;-77
2023/01/17 04:25:54;;;;;;;5.75;2.47;;;;;;;-1.70;100.00;89940.78;4991459;28;20038;-77
2023/01/17 04:28:20;;;;;;;4.28;2.30;;;;;;;-1.84;100.00;89928.91;4990676;28;20042;-77
2023/01/17 04:30:45;;;;;;;4.75;2.30;;;;;;;-1.98;100.00;89929.56;4989381;28;20041;-77
2023/01/17 04:33:11;;;;;;;5.40;2.47;;;;;;;-2.08;100.00;89924.53;4989832;28;20470;-77
2023/01/17 04:35:36;;;;;;;4.80;2.63;;;;;;;-2.20;100.00;89927.47;4990912;28;20038;-78
2023/01/17 04:38:02;;;;;;;4.68;2.58;;;;;;;-2.23;100.00;89934.91;4991093;28;20073;-77
2023/01/17 04:40:28;;;;;;;4.50;2.70;;;;;;;-2.27;100.00;89939.06;4972559;28;20050;-77
2023/01/17 04:42:56;;;;;;;5.78;2.92;;;;;;;-2.28;100.00;89945.22;4970104;28;20102;-77
2023/01/17 04:45:22;;;;;;;5.82;2.55;;;;;;;-2.28;100.00;89948.53;4971554;28;20051;-77
2023/01/17 04:47:47;;;;;;;5.28;2.80;;;;;;;-2.32;100.00;89950.91;4971163;28;20523;-77
2023/01/17 04:50:13;;;;;;;4.93;3.08;;;;;;;-2.33;100.00;89959.59;4977943;28;20042;-77
2023/01/17 04:52:39;;;;;;;5.03;3.05;;;;;;;-2.32;100.00;89963.72;4990732;28;20042;-79
2023/01/17 04:55:05;;;;;;;4.60;2.80;;;;;;;-2.23;100.00;89955.44;4990112;28;20060;-76
2023/01/17 04:57:31;;;;;;;5.80;2.80;;;;;;;-2.18;100.00;89953.59;4990442;28;20125;-76
2023/01/17 04:59:56;;;;;;;6.20;3.22;;;;;;;-2.15;100.00;89947.16;4989142;28;20122;-77
2023/01/17 05:02:22;;;;;;;4.78;2.72;;;;;;;-2.14;100.00;89943.53;4989779;28;20043;-77
2023/01/17 05:04:47;;;;;;;5.65;3.00;;;;;;;-2.14;100.00;89948.66;4989242;28;20026;-76
2023/01/17 05:07:13;;;;;;;5.45;2.75;;;;;;;-2.14;100.00;89944.34;4991079;28;20393;-76
2023/01/17 05:09:38;;;;;;;5.43;2.85;;;;;;;-2.12;100.00;89936.34;4990177;28;20485;-76
2023/01/17 05:12:04;;;;;;;4.93;2.78;;;;;;;-2.12;100.00;89939.69;4983133;28;20046;-77
2023/01/17 05:14:30;;;;;;;5.18;2.42;;;;;;;-2.10;100.00;89949.66;4956127;28;20058;-77
2023/01/17 05:16:56;;;;;;;5.70;2.58;;;;;;;-2.04;100.00;89952.97;4958032;28;20493;-76
2023/01/17 05:19:23;;;;;;;4.45;2.20;;;;;;;-2.04;100.00;89958.09;4989925;28;20054;-77
2023/01/17 05:21:49;;;;;;;3.83;2.13;;;;;;;-2.02;100.00;89950.88;4989429;28;20113;-77
2023/01/17 05:24:14;;;;;;;4.47;2.42;;;;;;;-1.97;100.00;89948.25;4976932;28;20495;-77
2023/01/17 05:26:41;;;;;;;8.20;2.92;;;;;;;-1.93;100.00;89954.38;4991039;28;20576;-77
2023/01/17 05:29:08;;;;;;;6.55;2.83;;;;;;;-1.90;100.00;89957.16;5002058;28;20558;-77
2023/01/17 05:31:34;;;;;;;7.13;2.17;;;;;;;-1.88;100.00;89954.31;4989173;28;20046;-76
2023/01/17 05:34:00;;;;;;;3.10;1.83;;;;;;;-1.84;100.00;89954.56;4993641;28;20097;-76
2023/01/17 05:36:26;;;;;;;4.15;2.17;;;;;;;-1.78;100.00;89968.84;4978082;28;20042;-79
2023/01/17 05:38:51;;;;;;;6.57;2.40;;;;;;;-1.79;100.00;89955.25;4992257;28;20108;-79
2023/01/17 05:41:17;;;;;;;4.50;2.67;;;;;;;-1.72;100.00;89957.50;4994510;28;20378;-79
2023/01/17 05:43:43;;;;;;;4.22;2.20;;;;;;;-1.73;100.00;89954.16;4977475;28;20030;-78
2023/01/17 05:46:08;;;;;;;5.25;2.40;;;;;;;-1.65;100.00;89955.34;4991990;28;20038;-78
2023/01/17 05:48:34;;;;;;;3.22;1.80;;;;;;;-1.62;100.00;89964.28;4994954;28;20046;-78
2023/01/17 05:51:00;;;;;;;3.50;2.08;;;;;;;-1.45;100.00;89966.44;4995564;28;20062;-78
2023/01/17 05:53:26;;;;;;;5.80;2.33;;;;;;;-1.51;100.00;89956.22;4995679;28;20329;-78
2023/01/17 05:55:52;;;;;;;5.32;2.70;;;;;;;-1.52;100.00;89954.69;4993164;28;20460;-80
2023/01/17 05:58:19;;;;;;;4.28;2.28;;;;;;;-1.54;100.00;89959.34;4980100;28;20038;-77
2023/01/17 06:00:45;;;;;;;4.63;2.40;;;;;;;-1.43;100.00;89965.13;4993578;28;20038;-78
2023/01/17 06:03:12;;;;;;;5.47;2.63;;;;;;;-1.41;100.00;89955.34;4991736;28;20530;-77
2023/01/17 06:05:38;;;;;;;5.38;3.15;;;;;;;-1.38;100.00;89951.47;4992590;28;20074;-79
2023/01/17 06:08:04;;;;;;;5.90;3.20;;;;;;;-1.47;100.00;89952.06;4993205;28;20042;-78
2023/01/17 06:10:30;;;;;;;6.35;3.47;;;;;;;-1.46;100.00;89960.53;4996642;28;20048;-78
2023/01/17 06:13:05;;;;;;;6.18;3.58;;;;;;;-1.48;100.00;89947.22;4991676;28;20022;-78
2023/01/17 06:15:31;;;;;;;6.78;3.20;;;;;;;-1.49;100.00;89950.81;4991958;28;20030;-76
2023/01/17 06:17:57;;;;;;;5.68;3.10;;;;;;;-1.51;100.00;89942.63;4991037;28;20038;-78
2023/01/17 06:20:22;;;;;;;8.05;2.90;;;;;;;-1.53;100.00;89950.59;4994486;28;20045;-78
2023/01/17 06:22:48;;;;;;;4.85;2.78;;;;;;;-1.54;100.00;89941.38;4990857;28;20061;-77
2023/01/17 06:25:14;;;;;;;6.18;3.35;;;;;;;-1.54;100.00;89936.25;4986260;28;20050;-77
2023/01/17 06:27:39;;;;;;;5.13;3.00;;;;;;;-1.53;100.00;89937.78;4992389;28;20042;-78
2023/01/17 06:30:06;;;;;;;4.70;2.70;;;;;;;-1.52;100.00;89943.66;4985842;28;20047;-78
2023/01/17 06:32:31;;;;;;;4.50;2.30;;;;;;;-1.50;100.00;89941.59;4992552;28;20030;-78
2023/01/17 06:34:57;;;;;;;4.43;2.40;;;;;;;-1.51;100.00;89947.75;4974680;28;20420;-78
2023/01/17 06:37:23;;;;;;;5.43;2.13;;;;;;;-1.50;100.00;89950.06;4988959;28;20034;-78
2023/01/17 06:39:48;;;;;;;4.05;2.08;;;;;;;-1.49;100.00;89938.75;4994380;28;20047;-78
2023/01/17 06:42:14;;;;;;;6.50;2.40;;;;;;;-1.42;100.00;89933.28;4995888;28;20420;-78
2023/01/17 06:44:41;;;;;;;3.92;2.10;;;;;;;-1.40;100.00;89940.69;4978593;28;20093;-78
2023/01/17 06:47:06;;;;;;;3.35;2.00;;;;;;;-1.37;100.00;89950.44;4995695;28;20477;-78
2023/01/17 06:49:32;;;;;;;4.30;2.05;;;;;;;-1.38;100.00;89947.09;4992326;28;20089;-78
2023/01/17 06:51:58;;;;;;;3.20;1.90;;;;;;;-1.39;100.00;89942.25;4994920;28;20065;-77
2023/01/17 06:54:23;;;;;;;3.70;1.80;;;;;;;-1.40;100.00;89935.56;4996520;28;20445;-78
2023/01/17 06:56:49;;;;;;;3.50;1.90;;;;;;;-1.41;100.00;89929.69;5001867;28;20093;-78
2023/01/17 06:59:14;;;;;;;4.15;2.00;;;;;;;-1.41;100.00;89926.34;5002308;28;20038;-79
2023/01/17 07:01:40;;;;;;;4.80;2.15;;;;;;;-1.42;100.00;89914.56;4998149;28;20488;-78
2023/01/17 07:04:05;;;;;;;4.82;2.30;;;;;;;-1.42;100.00;89894.03;4995224;28;20042;-78
2023/01/17 07:06:31;;;;;;;3.47;1.98;;;;;;;-1.42;100.00;89886.31;4994642;28;20037;-78
2023/01/17 07:08:57;;;;;;;3.75;1.90;;;;;;;-1.36;100.00;89898.06;4994353;28;20042;-78
2023/01/17 07:11:23;;;;;;;3.30;1.70;;;;;;;-1.22;100.00;89898.88;4994044;28;20030;-78
2023/01/17 07:13:49;;;;;;;3.45;1.50;;;;;;;-1.17;100.00;89893.69;4973648;28;20050;-78
2023/01/17 07:16:14;;;;;;;3.42;1.73;;;;;;;-1.15;100.00;89895.97;4974000;28;20030;-78
2023/01/17 07:18:40;;;;;;;3.42;1.73;;;;;;;-1.10;100.00;89886.41;4975329;28;20039;-78
2023/01/17 07:21:11;;;;;;;3.20;1.85;;;;;;;-1.13;100.00;89889.50;4974950;28;20399;-78
2023/01/17 07:23:37;;;;;;;4.90;2.33;;;;;;;-1.20;100.00;89894.22;4975520;28;20528;-78
2023/01/17 07:26:03;;;;;;;3.70;2.13;;;;;;;-1.25;100.00;89899.44;4974053;28;20134;-78
2023/01/17 07:28:28;;;;;;;5.80;2.83;;;;;;;-1.26;100.00;89887.66;4975431;28;20029;-78
2023/01/17 07:30:54;;;;;;;6.78;2.83;;;;;;;-1.28;100.00;89871.78;4974125;28;20038;-78
2023/01/17 07:33:20;;;;;;;7.40;2.47;;;;;;;-1.30;100.00;89874.59;4975350;28;20511;-78
2023/01/17 07:35:46;;;;;;;4.75;2.50;;;;;;;-1.30;100.00;89864.34;4973654;28;20082;-78
2023/01/17 07:38:14;;;;;;;6.35;2.53;;;;;;;-1.28;100.00;89857.13;4975159;28;20110;-78
2023/01/17 07:40:40;;;;;;;3.15;1.90;;;;;;;-1.26;100.00;89854.28;4975120;28;20114;-78
2023/01/17 07:43:12;;;;;;;4.35;2.13;;;;;;;-1.21;100.00;89841.38;4974882;28;20071;-78
2023/01/17 07:45:46;;;;;;;4.10;2.10;;;;;;;-1.15;100.00;89832.56;4974953;28;20046;-78
2023/01/17 07:48:12;;;;;;;2.85;1.67;;;;;;;-1.11;100.00;89830.94;4975183;28;20039;-78
2023/01/17 07:50:38;;;;;;;2.95;1.60;;;;;;;-1.07;100.00;89833.72;4974824;28;20051;-78
2023/01/17 07:53:04;;;;;;;2.95;1.70;;;;;;;-1.01;100.00;89831.81;4974034;28;20042;-78
2023/01/17 07:55:30;;;;;;;3.45;1.85;;;;;;;-0.90;100.00;89843.47;4975130;28;20488;-78
2023/01/17 07:57:56;;;;;;;4.10;2.00;;;;;;;-0.93;100.00;89842.22;4974103;28;20035;-78
2023/01/17 08:00:27;;;;;;;4.20;2.10;;;;;;;-0.98;100.00;89841.56;4974131;28;20046;-78
2023/01/17 08:03:04;;;;;;;4.47;2.08;;;;;;;-1.03;100.00;89844.97;4975243;28;20039;-78
2023/01/17 08:05:30;;;;;;;3.80;1.73;;;;;;;-1.05;100.00;89845.25;4975224;28;20039;-78
2023/01/17 08:07:56;;;;;;;4.00;2.00;;;;;;;-0.82;100.00;89847.97;4975787;28;20050;-78
2023/01/17 08:10:21;;;;;;;3.50;1.95;;;;;;;-0.71;100.00;89849.34;4976890;28;20038;-78
2023/01/17 08:12:48;;;;;;;4.15;2.28;;;;;;;-0.81;100.00;89844.38;4981792;28;20069;-78
2023/01/17 08:15:16;;;;;;;4.13;2.20;;;;;;;-0.80;100.00;89829.72;4982548;28;20089;-78
2023/01/17 08:17:52;;;;;;;4.18;2.10;;;;;;;-0.83;100.00;89825.91;4978219;28;20027;-78
2023/01/17 08:20:18;;;;;;;4.50;2.40;;;;;;;-0.84;100.00;89826.94;4988918;28;20042;-78
2023/01/17 08:22:43;;;;;;;3.40;1.80;;;;;;;-0.84;100.00;89832.84;4973013;28;20115;-78
2023/01/17 08:25:09;;;;;;;5.40;2.30;;;;;;;-0.85;100.00;89833.88;4973114;28;20050;-78
2023/01/17 08:27:35;;;;;;;5.75;2.22;;;;;;;-0.85;100.00;89848.53;4974589;28;20049;-78
2023/01/17 08:30:01;;;;;;;5.35;2.17;;;;;;;-0.83;100.00;89846.47;4989006;28;20043;-78
2023/01/17 08:32:27;;;;;;;4.70;2.45;;;;;;;-0.77;100.00;89845.31;4989663;28;20031;-78
2023/01/17 08:34:54;;;;;;;5.35;2.58;;;;;;;-0.76;100.00;89846.09;4975031;28;20039;-78
2023/01/17 08:37:19;;;;;;;6.47;2.70;;;;;;;-0.77;100.00;89845.31;4974828;28;20409;-78
2023/01/17 08:39:45;;;;;;;4.40;2.40;;;;;;;-0.76;100.00;89834.00;4973695;28;20039;-78
2023/01/17 08:42:10;;;;;;;4.22;2.30;;;;;;;-0.76;100.00;89831.44;4973152;28;20039;-78
2023/01/17 08:44:38;;;;;;;4.50;2.38;;;;;;;-0.68;100.00;89843.63;4975038;28;20035;-78
2023/01/17 08:47:04;;;;;;;5.85;2.15;;;;;;;-0.67;100.00;89827.19;4975180;28;20065;-78
2023/01/17 08:49:29;;;;;;;4.43;2.38;;;;;;;-0.61;100.00;89821.94;4978059;28;20130;-78
2023/01/17 08:51:55;;;;;;;5.95;3.05;;;;;;;-0.58;100.00;89816.25;4977915;28;20049;-78
2023/01/17 08:54:21;;;;;;;5.30;2.35;;;;;;;-0.58;100.00;89821.41;4978105;28;20038;-78
2023/01/17 08:56:48;;;;;;;4.30;2.10;;;;;;;-0.57;100.00;89817.78;4994043;28;20101;-78
2023/01/17 08:59:14;;;;;;;4.15;2.20;;;;;;;-0.56;100.00;89824.41;4978773;28;20485;-78
2023/01/17 09:01:40;;;;;;;4.50;2.20;;;;;;;-0.55;100.00;89825.97;4994137;28;20039;-78
2023/01/17 09:04:07;;;;;;;4.10;2.55;;;;;;;-0.55;100.00;89820.81;4979067;28;20054;-78
2023/01/17 09:06:36;;;;;;;5.03;2.25;;;;;;;-0.53;100.00;89824.63;4979118;28;20069;-78
2023/01/17 09:09:02;;;;;;;4.35;2.33;;;;;;;-0.54;100.00;89817.97;4979079;28;20043;-77
2023/01/17 09:11:28;;;;;;;7.60;2.72;;;;;;;-0.42;100.00;89822.66;4961820;28;20069;-78
2023/01/17 09:13:53;;;;;;;5.22;1.85;;;;;;;-0.22;100.00;89824.84;4978016;28;20047;-78
2023/01/17 09:16:19;;;;;;;2.15;1.45;;;;;;;0.03;100.00;89829.81;4979162;28;20050;-78
2023/01/17 09:18:44;;;;;;;4.20;2.20;;;;;;;-0.06;100.00;89832.28;4978651;28;20050;-78
2023/01/17 09:21:16;;;;;;;4.18;2.42;;;;;;;-0.29;100.00;89826.28;4978953;28;20033;-78
2023/01/17 09:23:42;;;;;;;5.10;2.22;;;;;;;-0.37;100.00;89817.41;4978050;28;20042;-78
2023/01/17 09:26:23;;;;;;;4.18;1.88;;;;;;;-0.34;100.00;89832.25;4961429;28;20043;-78
2023/01/17 09:28:49;;;;;;;4.72;2.40;;;;;;;-0.27;100.00;89830.09;4979289;28;20515;-78
2023/01/17 09:31:16;;;;;;;5.72;2.97;;;;;;;-0.17;100.00;89826.56;4979486;28;20035;-78
2023/01/17 09:33:42;;;;;;;5.07;2.50;;;;;;;-0.23;100.00;89825.88;4989002;28;20090;-78
2023/01/17 09:36:09;;;;;;;3.83;2.05;;;;;;;-0.05;100.00;89833.78;4999074;28;20140;-78
2023/01/17 09:38:35;;;;;;;3.92;2.20;;;;;;;-0.13;100.00;89829.34;4998563;28;20133;-78
2023/01/17 09:41:02;;;;;;;5.82;2.13;;;;;;;-0.03;100.00;89832.44;4997508;28;20504;-78
2023/01/17 09:43:35;;;;;;;4.47;2.42;;;;;;;0.10;100.00;89843.03;4997025;28;20042;-78
2023/01/17 09:46:01;;;;;;;4.40;2.30;;;;;;;-0.12;100.00;89844.47;4998602;28;20068;-78
2023/01/17 09:48:36;;;;;;;3.90;2.17;;;;;;;-0.14;100.00;89835.50;4996931;28;20038;-78
2023/01/17 09:51:08;;;;;;;4.25;2.30;;;;;;;-0.17;100.00;89838.66;4996441;28;20054;-78
2023/01/17 09:53:37;;;;;;;4.57;2.42;;;;;;;-0.12;100.00;89857.31;4980707;28;20034;-77
2023/01/17 09:56:10;;;;;;;4.20;2.22;;;;;;;-0.12;100.00;89856.56;4998041;28;20026;-78
2023/01/17 09:58:51;;;;;;;5.00;2.40;;;;;;;-0.17;100.00;89859.22;4998652;28;20046;-78
2023/01/17 10:01:23;;;;;;;4.15;2.22;;;;;;;-0.19;100.00;89854.38;4998214;28;20076;-78
2023/01/17 10:04:06;;;;;;;3.78;2.10;;;;;;;-0.23;100.00;89856.72;4996846;28;20049;-78
2023/01/17 10:06:41;;;;;;;5.63;2.50;;;;;;;-0.23;100.00;89853.41;4997522;28;20493;-78
2023/01/17 10:09:44;;;;;;;6.07;2.55;;;;;;;-0.23;100.00;89859.31;4998801;28;20038;-77
2023/01/17 10:12:25;;;;;;;4.35;2.55;;;;;;;-0.22;100.00;89860.84;4995605;28;20050;-78
2023/01/17 10:15:07;;;;;;;6.10;2.65;;;;;;;-0.18;100.00;89860.25;4998043;28;20034;-78
2023/01/17 10:17:53;;;;;;;5.03;2.35;;;;;;;-0.21;100.00;89857.22;4998668;28;20038;-78
2023/01/17 10:20:34;;;;;;;4.78;2.35;;;;;;;-0.18;100.00;89865.41;4998676;28;20049;-77
2023/01/17 10:23:24;;;;;;;4.20;2.05;;;;;;;-0.22;100.00;89860.84;4999240;28;20046;-78
2023/01/17 10:25:51;;;;;;;4.10;2.10;;;;;;;-0.12;100.00;89866.84;4999531;28;20636;-78
2023/01/17 10:28:16;;;;;;;4.65;2.30;;;;;;;-0.13;100.00;89862.75;4998373;28;20027;-78
2023/01/17 10:30:54;;;;;;;3.88;2.03;;;;;;;-0.18;100.00;89865.41;4998315;28;20053;-78
2023/01/17 10:33:27;;;;;;;3.97;2.20;;;;;;;-0.23;100.00;89874.72;4998352;28;20039;-78
2023/01/17 10:36:09;;;;;;;5.75;2.30;;;;;;;-0.27;100.00;89871.22;4997929;28;20030;-78
2023/01/17 10:38:37;;;;;;;3.92;2.35;;;;;;;-0.27;100.00;89868.66;4998606;28;20080;-78
2023/01/17 10:41:27;;;;;;;8.25;2.90;;;;;;;-0.32;100.00;89870.53;4997742;28;20050;-78
2023/01/17 10:44:22;;;;;;;4.45;2.65;;;;;;;-0.34;100.00;89857.19;4997919;28;20095;-78
2023/01/17 10:47:12;;;;;;;4.43;2.35;;;;;;;-0.35;100.00;89861.59;4996591;28;20054;-78
2023/01/17 10:49:51;;;;;;;7.47;3.83;;;;;;;-0.28;100.00;89854.25;4979612;28;20086;-78
2023/01/17 10:52:36;;;;;;;11.75;6.45;;;;;;;-0.29;100.00;89857.88;4997313;28;20496;-78
2023/01/17 10:55:20;;;;;;;5.63;2.83;;;;;;;-0.09;100.00;89858.56;4996791;28;20030;-77
2023/01/17 10:57:47;;;;;;;6.00;3.15;;;;;;;-0.17;100.00;89854.84;4996398;28;20050;-78
2023/01/17 11:00:27;;;;;;;127.38;7.47;;;;;;;-0.39;100.00;89845.19;4995070;28;20041;-77
2023/01/17 11:02:53;;;;;;;114.10;6.07;;;;;;;-0.39;100.00;89845.19;4996744;28;20045;-78
2023/01/17 11:05:31;;;;;;;359.80;11.73;;;;;;;-0.56;100.00;89835.47;4995109;28;20042;-78
2023/01/17 11:08:01;;;;;;;365.80;13.18;;;;;;;-0.60;100.00;89838.91;4996580;28;20037;-77
2023/01/17 11:10:39;;;;;;;71.15;5.47;;;;;;;-0.54;100.00;89832.59;4995778;28;20495;-78
2023/01/17 11:13:36;;;;;;;53.47;4.25;;;;;;;-0.38;100.00;89831.31;4995272;28;20045;-77
2023/01/17 11:16:06;;;;;;;40.55;4.63;;;;;;;-0.32;100.00;89837.13;4978317;28;20030;-78
2023/01/17 11:18:34;;;;;;;28.65;5.05;;;;;;;-0.49;100.00;89835.88;4996159;28;20105;-77
2023/01/17 11:21:15;;;;;;;77.97;5.60;;;;;;;-0.40;100.00;89832.66;4996216;28;20401;-78
2023/01/17 11:23:49;;;;;;;6.97;3.58;;;;;;;-0.32;100.00;89830.16;4995465;28;20136;-77
2023/01/17 11:26:33;;;;;;;4.90;3.00;;;;;;;-0.38;100.00;89825.38;4995469;28;20519;-78
2023/01/17 11:29:25;;;;;;;7.45;3.17;;;;;;;-0.35;100.00;89825.59;4975731;28;20477;-77
2023/01/17 11:31:52;;;;;;;6.93;4.32;;;;;;;-0.45;100.00;89818.06;4975890;28;20035;-78
2023/01/17 11:34:28;;;;;;;8.02;4.38;;;;;;;-0.49;100.00;89809.41;4975395;28;20106;-78
2023/01/17 11:37:27;;;;;;;20.73;5.10;;;;;;;-0.48;100.00;89810.91;4976295;28;20375;-77
2023/01/17 11:40:06;;;;;;;43.42;4.18;;;;;;;-0.51;100.00;89806.38;4953836;28;20054;-77
2023/01/17 11:42:35;;;;;;;66.78;5.13;;;;;;;-0.64;100.00;89797.59;4985217;28;20034;-77
2023/01/17 11:45:23;;;;;;;36.60;5.18;;;;;;;-0.69;100.00;89779.69;4994136;28;20038;-77
2023/01/17 11:47:48;;;;;;;12.00;4.35;;;;;;;-0.77;100.00;89770.81;4994437;28;20399;-77
2023/01/17 11:50:24;;;;;;;63.92;6.53;;;;;;;-0.74;100.00;89761.81;4993916;28;20069;-78
2023/01/17 11:52:50;;;;;;;132.70;8.80;;;;;;;-0.81;100.00;89758.81;4994499;28;20121;-78
2023/01/17 11:55:16;;;;;;;27.10;4.32;;;;;;;-0.77;100.00;89757.97;4992949;28;20073;-78
2023/01/17 11:57:48;;;;;;;14.38;3.67;;;;;;;-0.81;100.00;89753.69;4993222;28;20026;-77
2023/01/17 12:00:22;;;;;;;56.90;7.65;;;;;;;-0.81;100.00;89754.47;4961037;28;20042;-78
2023/01/17 12:03:09;;;;;;;7.25;4.15;;;;;;;-0.72;100.00;89760.47;4994354;28;20038;-77
2023/01/17 12:06:36;;;;;;;6.68;4.00;;;;;;;-0.62;100.00;89759.53;4999560;28;20045;-78
2023/01/17 12:09:21;;;;;;;85.72;5.40;;;;;;;-0.65;100.00;89758.28;4942231;28;20430;-78
2023/01/17 12:15:00;;;;;;;6.38;3.85;;;;;;;-0.80;100.00;89762.94;4992612;28;20056;-77
2023/01/17 12:17:38;;;;;;;7.07;3.80;;;;;;;-0.88;100.00;89767.69;4993449;28;20030;-78
2023/01/17 12:20:18;;;;;;;5.85;3.45;;;;;;;-0.81;100.00;89748.53;4992053;28;20547;-78
2023/01/17 12:23:02;;;;;;;7.28;4.38;;;;;;;-0.74;100.00;89746.38;4992060;28;20045;-77
2023/01/17 12:25:47;;;;;;;6.18;3.88;;;;;;;-0.70;100.00;89747.31;4993376;28;20155;-78
2023/01/17 12:28:18;;;;;;;5.47;3.38;;;;;;;-0.68;100.00;89740.84;4993514;28;20041;-78
2023/01/17 12:31:30;;;;;;;4.97;3.00;;;;;;;-0.30;100.00;89739.91;4991968;28;20070;-77
2023/01/17 12:34:25;;;;;;;4.90;2.90;;;;;;;-0.46;100.00;89737.63;4992913;28;20436;-77
2023/01/17 12:37:00;;;;;;;13.65;6.60;;;;;;;-0.43;100.00;89736.28;4991687;28;20520;-78
2023/01/17 12:39:42;;;;;;;5.15;2.80;;;;;;;-0.69;100.00;89729.06;4993132;28;20042;-77
2023/01/17 12:42:17;;;;;;;12.88;6.85;;;;;;;-0.82;100.00;89716.22;4991793;28;20048;-78
2023/01/17 12:45:01;;;;;;;6.90;4.03;;;;;;;-0.89;100.00;89714.78;4992899;28;20408;-78
2023/01/17 12:47:28;;;;;;;4.93;3.13;;;;;;;-0.95;100.00;89694.59;4993163;28;20444;-77
2023/01/17 12:50:16;;;;;;;10.68;4.63;;;;;;;-0.90;100.00;89705.56;4975419;28;20054;-78
2023/01/17 12:52:52;;;;;;;7.22;3.92;;;;;;;-0.86;100.00;89698.03;4993386;28;20117;-77
2023/01/17 12:55:32;;;;;;;8.32;4.78;;;;;;;-0.79;100.00;89693.28;4991983;28;20031;-78
2023/01/17 12:58:00;;;;;;;6.68;3.70;;;;;;;-0.68;100.00;89686.16;4992887;28;20038;-78
2023/01/17 13:00:28;;;;;;;5.68;3.03;;;;;;;-0.57;100.00;89673.88;4992923;28;20113;-77
2023/01/17 13:03:19;;;;;;;5.30;3.10;;;;;;;-0.48;100.00;89657.47;4992866;28;20030;-77
2023/01/17 13:05:45;;;;;;;5.45;2.90;;;;;;;-0.27;100.00;89629.56;4993085;28;20464;-77